Hermitage, TN

4:26 AM CDT on July 27, 2017 (GMT -0500)
Hermitage - Copperline Ranch | | Change Station

Elev 528 ft 36.18 °N, 86.63 °W | Updated 23 seconds ago

Partly Cloudy
Partly Cloudy
79.3 °F
Feels Like 84 °F
N
0.0
Wind Variable Wind from SW
Gusts 0.0 mph

Today
High -- | Low -- °F
--% Chance of Precip.
Yesterday
High -- | Low -- °F
Precip. -- in
Pressure 29.98 in
Visibility 10.0 miles
Clouds Mostly Cloudy 25000 ft
Heat Index 84 °F
Dew Point 76 °F
Humidity 89%
Rainfall 0.00 in
Snow Depth Not available.
5:49 AM 7:55 PM
Waxing Crescent, 19% visible
METAR KBNA 270853Z 23003KT 10SM BKN250 27/22 A3000 RMK AO2 SLP152 T02670222 56008
Pressure 29.98 in
Visibility 10.0 miles
Clouds Mostly Cloudy 25000 ft
Heat Index 84 °F
Dew Point 76 °F
Humidity 89%
Rainfall 0.00 in
Snow Depth Not available.
5:49 AM 7:55 PM
Waxing Crescent, 19% visible
METAR KBNA 270853Z 23003KT 10SM BKN250 27/22 A3000 RMK AO2 SLP152 T02670222 56008

Get Severe Weather Alerts

Thanks for signing up!

Be on the lookout for a verification email in your inbox.

You'll start receiving the daily forecast at 6 AM.

×

10-Day Weather Forecast

Almanac

Astronomy

Jul. 27, 2017 Rise Set
Actual Time
Civil Twilight
Nautical Twilight
Astronomical Twilight
Moon
Length of Visible Light
Length of Day
Tomorrow will be .
, % of the Moon is Illuminated

Today's Extremes

State Highs State Lows

Community

WunderPhotos

Category 6

Welcome to Category 6. This is the collective home for Weather Underground's featured writeups by Dr. Jeff Masters (right), Bob Henson (left), Chris Burt, and other regular contributors.

Nearby

Air Quality

  Air Quality AQ Index Pollutant
Not available.

Snow Depth

Station Depth Elevation

Earthquake Activity

City Distance Mag. Time & Date
Minimum magnitude displayed is 2.5.

Coastal Water Temperatures

Place Temperature

Stations

Nearby Weather Stations

Station Location Temp. Windchill Dew Point Humidity Wind Precip. Elev Updated Type
                   

Watches & Warnings

There are currently no watches in effect.